Terminal Aerodrome Forecast
Issued by NWS Billings, MT

Home | Current Version | Previous Version | Text Only | Print | Product List | Glossary Off
Versions: 1 2 3 4 5 6 7 8 9 10 11 12 13 14 15 16

000
FTUS45 KBYZ 161126
TAFMLS
TAF
KMLS 161126Z 1612/1712 33011KT P6SM FEW120 BKN200
     FM161600 36008KT P6SM OVC090
     FM162000 07007KT P6SM VCSH OVC070=

USA.gov is the U.S. government's official web portal to all federal, state and local government web resources and services.